createdAt,value
2023-05-12T00:01:33.528Z,16.40
2023-05-12T00:04:02.268Z,16.97
2023-05-12T00:06:31.385Z,15.63
2023-05-12T00:09:00.048Z,15.00
2023-05-12T00:11:28.642Z,15.60
2023-05-12T00:13:57.637Z,15.55
2023-05-12T00:16:26.253Z,15.70
2023-05-12T00:18:55.124Z,15.45
2023-05-12T00:21:23.787Z,14.70
2023-05-12T00:23:52.361Z,15.03
2023-05-12T00:26:21.267Z,15.03
2023-05-12T00:28:49.852Z,15.20
2023-05-12T00:31:18.491Z,14.83
2023-05-12T00:33:47.072Z,15.63
2023-05-12T00:36:15.726Z,13.88
2023-05-12T00:38:44.329Z,13.95
2023-05-12T00:41:12.914Z,14.07
2023-05-12T00:43:41.592Z,14.55
2023-05-12T00:46:10.286Z,14.15
2023-05-12T00:48:38.917Z,14.63
2023-05-12T00:51:07.835Z,14.13
2023-05-12T00:53:48.510Z,13.32
2023-05-12T00:56:07.373Z,12.25
2023-05-12T00:58:35.991Z,12.78
2023-05-12T01:01:04.608Z,14.10
2023-05-12T01:03:33.373Z,14.50
2023-05-12T01:06:21.822Z,14.20
2023-05-12T01:08:50.667Z,14.10
2023-05-12T01:11:19.289Z,13.10
2023-05-12T01:13:47.875Z,13.25
2023-05-12T01:16:18.952Z,12.63
2023-05-12T01:18:53.292Z,12.23
2023-05-12T01:21:21.900Z,12.03
2023-05-12T01:24:18.625Z,12.73
2023-05-12T01:26:47.272Z,11.83
2023-05-12T01:29:15.975Z,11.85
2023-05-12T01:31:45.143Z,11.88
2023-05-12T01:34:19.620Z,11.40
2023-05-12T01:36:48.199Z,11.08
2023-05-12T01:39:16.883Z,11.00
2023-05-12T01:41:45.539Z,10.58
2023-05-12T01:44:14.136Z,11.00
2023-05-12T01:46:42.756Z,11.48
2023-05-12T01:49:11.372Z,11.35
2023-05-12T01:51:40.003Z,10.90
2023-05-12T01:54:08.658Z,10.68
2023-05-12T01:56:37.243Z,9.83
2023-05-12T01:59:05.917Z,10.03
2023-05-12T02:01:34.620Z,9.30
2023-05-12T02:04:04.602Z,8.03
2023-05-12T02:06:33.203Z,8.03
2023-05-12T02:09:01.803Z,7.92
2023-05-12T02:11:30.587Z,6.50
2023-05-12T02:13:59.316Z,5.75
2023-05-12T02:16:27.943Z,6.20
2023-05-12T02:18:56.551Z,5.25
2023-05-12T02:21:25.099Z,5.03
2023-05-12T02:23:53.668Z,4.72
2023-05-12T02:26:22.335Z,4.58
2023-05-12T02:28:50.923Z,3.20
2023-05-12T02:31:19.553Z,2.00
2023-05-12T02:33:48.465Z,3.20
2023-05-12T02:36:17.109Z,2.98
2023-05-12T02:38:45.715Z,1.85
2023-05-12T02:41:14.307Z,1.92
2023-05-12T02:43:42.930Z,2.12
2023-05-12T02:46:11.680Z,1.60
2023-05-12T02:48:40.309Z,2.00
2023-05-12T02:51:09.069Z,1.75
2023-05-12T02:53:37.649Z,2.00
2023-05-12T02:56:07.078Z,2.08
2023-05-12T02:58:36.393Z,2.00
2023-05-12T03:01:10.848Z,1.95
2023-05-12T03:03:35.518Z,1.85
2023-05-12T03:06:04.618Z,1.87
2023-05-12T03:08:33.257Z,1.85
2023-05-12T03:11:02.018Z,1.92
2023-05-12T03:13:30.593Z,1.92
2023-05-12T03:16:00.887Z,1.85
2023-05-12T03:18:29.681Z,1.90
2023-05-12T03:20:58.349Z,2.00
2023-05-12T03:23:27.225Z,1.90
2023-05-12T03:25:55.795Z,1.77
2023-05-12T03:28:24.800Z,1.35
2023-05-12T03:30:53.383Z,1.95
2023-05-12T03:33:21.944Z,1.82
2023-05-12T03:35:50.547Z,2.08
2023-05-12T03:38:19.144Z,1.90
2023-05-12T03:40:49.366Z,1.95
2023-05-12T03:43:18.312Z,1.95
2023-05-12T03:45:46.901Z,2.00
2023-05-12T03:48:15.555Z,2.27
2023-05-12T03:50:44.267Z,2.00
2023-05-12T03:53:12.829Z,1.90
2023-05-12T03:55:41.605Z,2.08
2023-05-12T03:58:10.187Z,2.08
2023-05-12T04:00:39.018Z,1.75
2023-05-12T04:03:07.944Z,1.90
2023-05-12T04:05:38.172Z,1.60
2023-05-12T04:08:06.758Z,2.00
2023-05-12T04:10:40.407Z,2.10
2023-05-12T04:13:09.239Z,2.10
2023-05-12T04:15:37.901Z,2.27
2023-05-12T04:18:06.581Z,2.25
2023-05-12T04:20:35.237Z,2.37
2023-05-12T04:23:03.810Z,2.20
2023-05-12T04:25:32.491Z,2.20
2023-05-12T04:28:01.067Z,2.52
2023-05-12T04:30:29.662Z,2.33
2023-05-12T04:32:58.285Z,2.47
2023-05-12T04:35:26.839Z,3.27
2023-05-12T04:37:55.435Z,4.15
2023-05-12T04:40:24.160Z,5.55
2023-05-12T04:42:52.741Z,5.97
2023-05-12T04:45:21.598Z,5.97
2023-05-12T04:47:50.414Z,6.15
2023-05-12T04:50:18.971Z,6.78
2023-05-12T04:52:47.560Z,6.30
2023-05-12T04:55:16.152Z,4.97
2023-05-12T04:57:44.737Z,6.30
2023-05-12T05:00:13.831Z,4.35
2023-05-12T05:02:42.527Z,4.00
2023-05-12T05:05:11.747Z,4.08
2023-05-12T05:07:40.336Z,4.58
2023-05-12T05:10:09.508Z,3.98
2023-05-12T05:12:38.104Z,3.90
2023-05-12T05:15:07.552Z,3.35
2023-05-12T05:17:36.324Z,3.50
2023-05-12T05:20:09.753Z,3.52
2023-05-12T05:22:35.684Z,3.12
2023-05-12T05:25:04.326Z,3.27
2023-05-12T05:27:32.925Z,2.65
2023-05-12T05:30:01.569Z,2.92
2023-05-12T05:32:30.194Z,3.00
2023-05-12T05:34:58.778Z,2.83
2023-05-12T05:37:27.354Z,2.83
2023-05-12T05:39:55.961Z,3.02
2023-05-12T05:42:24.545Z,3.05
2023-05-12T05:44:53.154Z,2.85
2023-05-12T05:47:21.742Z,3.15
2023-05-12T05:49:50.337Z,2.70
2023-05-12T05:52:18.958Z,3.00
2023-05-12T05:54:47.517Z,2.80
2023-05-12T05:57:16.107Z,2.85
2023-05-12T05:59:45.090Z,3.00
2023-05-12T06:02:14.179Z,2.72
2023-05-12T06:04:42.836Z,3.30
2023-05-12T06:07:11.502Z,2.75
2023-05-12T06:09:40.083Z,2.87
2023-05-12T06:12:09.205Z,3.40
2023-05-12T06:14:37.815Z,2.80
2023-05-12T06:17:06.525Z,2.92
2023-05-12T06:19:35.352Z,3.40
2023-05-12T06:22:04.019Z,3.33
2023-05-12T06:24:32.618Z,3.58
2023-05-12T06:27:01.376Z,3.80
2023-05-12T06:29:29.961Z,3.22
2023-05-12T06:31:58.633Z,3.87
2023-05-12T06:34:27.342Z,3.77
2023-05-12T06:36:55.936Z,3.42
2023-05-12T06:39:24.533Z,3.37
2023-05-12T06:41:53.211Z,3.42
2023-05-12T06:44:21.886Z,3.62
2023-05-12T06:46:50.477Z,3.05
2023-05-12T06:49:19.087Z,3.10
2023-05-12T06:51:47.679Z,3.37
2023-05-12T06:54:16.318Z,3.12
2023-05-12T06:56:44.905Z,3.50
2023-05-12T06:59:14.247Z,3.95
2023-05-12T07:01:43.065Z,3.40
2023-05-12T07:04:11.915Z,3.62
2023-05-12T07:06:40.436Z,3.42
2023-05-12T07:09:09.076Z,3.40
2023-05-12T07:11:37.685Z,3.75
2023-05-12T07:14:06.252Z,3.75
2023-05-12T07:16:34.973Z,4.30
2023-05-12T07:19:05.331Z,3.70
2023-05-12T07:21:34.084Z,3.65
2023-05-12T07:24:02.948Z,3.22
2023-05-12T07:26:31.842Z,3.83
2023-05-12T07:29:01.404Z,3.45
2023-05-12T07:31:30.197Z,3.30
2023-05-12T07:33:58.763Z,3.60
2023-05-12T07:36:28.245Z,3.65
2023-05-12T07:38:57.057Z,3.20
2023-05-12T07:41:26.190Z,2.75
2023-05-12T07:43:54.809Z,3.15
2023-05-12T07:46:23.499Z,2.58
2023-05-12T07:48:52.129Z,3.40
2023-05-12T07:51:20.771Z,2.98
2023-05-12T07:53:49.421Z,3.17
2023-05-12T07:56:18.013Z,3.15
2023-05-12T07:58:47.630Z,2.87
2023-05-12T08:01:16.448Z,3.10
2023-05-12T08:03:45.125Z,2.77
2023-05-12T08:06:13.715Z,2.67
2023-05-12T08:08:42.308Z,2.83
2023-05-12T08:11:11.435Z,2.90
2023-05-12T08:13:40.269Z,2.72
2023-05-12T08:16:08.930Z,2.30
2023-05-12T08:18:37.535Z,2.65
2023-05-12T08:21:06.146Z,2.75
2023-05-12T08:23:34.910Z,2.62
2023-05-12T08:26:03.541Z,3.15
2023-05-12T08:28:32.242Z,2.30
2023-05-12T08:31:03.373Z,2.17
2023-05-12T08:33:31.135Z,2.65
2023-05-12T08:35:59.772Z,2.08
2023-05-12T08:38:28.949Z,2.30
2023-05-12T08:41:18.819Z,2.35
2023-05-12T08:43:50.449Z,2.60
2023-05-12T08:46:19.483Z,2.80
2023-05-12T08:48:49.736Z,2.77
2023-05-12T08:51:19.963Z,2.50
2023-05-12T08:53:49.878Z,2.70
2023-05-12T08:58:52.615Z,2.50
2023-05-12T09:01:22.279Z,2.83
2023-05-12T09:03:53.681Z,2.55
2023-05-12T09:06:22.586Z,2.42
2023-05-12T09:08:52.161Z,2.40
2023-05-12T09:11:22.082Z,2.33
2023-05-12T09:14:02.879Z,2.50
2023-05-12T09:16:40.416Z,2.35
2023-05-12T09:19:09.400Z,2.37
2023-05-12T09:21:38.100Z,2.58
2023-05-12T09:24:09.130Z,2.30
2023-05-12T09:26:49.257Z,2.27
2023-05-12T09:29:30.550Z,2.33
2023-05-12T09:31:52.115Z,2.60
2023-05-12T09:34:22.462Z,2.67
2023-05-12T09:37:01.224Z,2.30
2023-05-12T09:39:29.901Z,2.65
2023-05-12T09:41:58.736Z,2.37
2023-05-12T09:44:29.235Z,2.55
2023-05-12T09:46:59.366Z,2.30
2023-05-12T09:49:27.954Z,2.37
2023-05-12T09:52:00.502Z,2.47
2023-05-12T09:54:34.162Z,2.15
2023-05-12T09:57:06.149Z,2.10
2023-05-12T09:59:36.180Z,2.80
2023-05-12T10:02:07.561Z,2.02
2023-05-12T10:04:42.338Z,2.62
2023-05-12T10:07:13.513Z,2.47
2023-05-12T10:09:44.641Z,2.50
2023-05-12T10:12:14.289Z,2.33
2023-05-12T10:14:43.389Z,2.40
2023-05-12T10:17:12.820Z,2.40
2023-05-12T10:19:43.111Z,2.40
2023-05-12T10:22:12.277Z,2.27
2023-05-12T10:24:42.294Z,2.37
2023-05-12T10:27:12.090Z,2.58
2023-05-12T10:29:41.755Z,2.20
2023-05-12T10:32:10.778Z,2.45
2023-05-12T10:34:40.702Z,2.40
2023-05-12T10:37:11.782Z,2.35
2023-05-12T10:39:52.360Z,1.98
2023-05-12T10:42:25.692Z,2.00
2023-05-12T10:44:55.586Z,2.25
2023-05-12T10:47:29.189Z,2.22
2023-05-12T10:50:01.310Z,1.90
2023-05-12T10:52:29.943Z,2.40
2023-05-12T10:55:04.028Z,2.20
2023-05-12T10:57:35.364Z,2.37
2023-05-12T11:00:05.388Z,2.40
2023-05-12T11:02:36.652Z,2.20
2023-05-12T11:05:07.420Z,2.10
2023-05-12T11:07:37.374Z,2.60
2023-05-12T11:10:08.033Z,2.25
2023-05-12T11:12:37.089Z,2.33
2023-05-12T11:15:07.561Z,2.20
2023-05-12T11:17:40.057Z,2.20
2023-05-12T11:20:12.111Z,2.40
2023-05-12T11:22:43.307Z,2.33
2023-05-12T11:25:13.010Z,2.15
2023-05-12T11:27:51.983Z,2.17
2023-05-12T11:30:21.402Z,2.42
2023-05-12T11:32:51.610Z,2.50
2023-05-12T11:35:20.816Z,2.30
2023-05-12T11:37:53.792Z,2.37
2023-05-12T11:42:54.116Z,2.22
2023-05-12T11:45:29.267Z,2.20
2023-05-12T11:48:15.047Z,2.20
2023-05-12T11:50:48.199Z,2.40
2023-05-12T11:53:20.149Z,2.80
2023-05-12T11:55:59.161Z,2.40
2023-05-12T11:58:30.475Z,2.37
2023-05-12T12:01:02.399Z,2.65
2023-05-12T12:03:31.215Z,2.37
2023-05-12T12:06:02.071Z,2.70
2023-05-12T12:08:31.780Z,2.50
2023-05-12T12:11:02.932Z,2.77
2023-05-12T12:13:30.621Z,3.15
2023-05-12T12:15:59.230Z,2.60
2023-05-12T12:18:27.845Z,2.80
2023-05-12T12:20:56.404Z,2.75
2023-05-12T12:23:25.354Z,2.90
2023-05-12T12:25:54.032Z,2.60
2023-05-12T12:28:22.633Z,2.80
2023-05-12T12:30:51.278Z,2.87
2023-05-12T12:33:20.706Z,2.90
2023-05-12T12:35:49.465Z,3.08
2023-05-12T12:38:18.048Z,3.30
2023-05-12T12:40:46.711Z,3.22
2023-05-12T12:43:15.360Z,2.98
2023-05-12T12:45:44.036Z,3.45
2023-05-12T12:48:12.797Z,3.10
2023-05-12T12:50:41.556Z,3.20
2023-05-12T12:53:10.140Z,3.17
2023-05-12T12:55:38.933Z,3.00
2023-05-12T12:58:07.590Z,3.08
2023-05-12T13:00:36.827Z,2.90
2023-05-12T13:03:06.587Z,3.20
2023-05-12T13:05:35.323Z,3.10
2023-05-12T13:08:04.118Z,3.15
2023-05-12T13:10:32.907Z,2.92
2023-05-12T13:13:01.622Z,3.40
2023-05-12T13:15:32.395Z,3.08
2023-05-12T13:18:00.969Z,3.05
2023-05-12T13:20:29.776Z,3.00
2023-05-12T13:22:58.356Z,3.22
2023-05-12T13:25:26.953Z,2.90
2023-05-12T13:27:55.612Z,3.08
2023-05-12T13:30:25.215Z,3.20
2023-05-12T13:32:54.096Z,3.37
2023-05-12T13:35:23.162Z,3.58
2023-05-12T13:37:51.948Z,3.52
2023-05-12T13:40:20.542Z,3.40
2023-05-12T13:42:49.143Z,4.08
2023-05-12T13:45:20.111Z,3.50
2023-05-12T13:47:48.944Z,3.55
2023-05-12T13:50:17.493Z,3.45
2023-05-12T13:52:47.532Z,3.67
2023-05-12T13:55:20.875Z,3.67
2023-05-12T13:57:46.360Z,3.45
2023-05-12T14:00:17.373Z,3.58
2023-05-12T14:02:46.290Z,3.75
2023-05-12T14:05:15.008Z,3.60
2023-05-12T14:07:43.711Z,3.83
2023-05-12T14:10:12.375Z,3.75
2023-05-12T14:12:42.654Z,3.30
2023-05-12T14:15:26.144Z,3.90
2023-05-12T14:17:42.437Z,3.22
2023-05-12T14:20:11.603Z,3.27
2023-05-12T14:22:41.882Z,3.50
2023-05-12T14:25:10.588Z,4.05
2023-05-12T14:27:39.269Z,3.60
2023-05-12T14:30:09.089Z,3.75
2023-05-12T14:32:37.936Z,3.30
2023-05-12T14:35:08.390Z,3.83
2023-05-12T14:37:37.465Z,3.80
2023-05-12T14:40:07.503Z,3.65
2023-05-12T14:42:36.116Z,4.30
2023-05-12T14:45:05.069Z,3.52
2023-05-12T14:47:33.775Z,3.08
2023-05-12T14:50:02.342Z,3.60
2023-05-12T14:52:32.615Z,3.70
2023-05-12T14:55:02.830Z,3.50
2023-05-12T14:57:33.090Z,3.37
2023-05-12T15:00:02.259Z,3.27
2023-05-12T15:02:31.061Z,3.87
2023-05-12T15:04:59.895Z,3.45
2023-05-12T15:07:28.665Z,3.47
2023-05-12T15:09:57.560Z,3.62
2023-05-12T15:12:26.583Z,3.40
2023-05-12T15:14:56.382Z,3.87
2023-05-12T15:17:25.208Z,3.72
2023-05-12T15:19:53.908Z,3.00
2023-05-12T15:22:22.649Z,3.98
2023-05-12T15:24:51.246Z,3.00
2023-05-12T15:27:19.839Z,3.45
2023-05-12T15:29:48.489Z,3.67
2023-05-12T15:32:17.152Z,3.47
2023-05-12T15:34:45.962Z,3.52
2023-05-12T15:37:14.638Z,3.17
2023-05-12T15:39:43.310Z,3.72
2023-05-12T15:42:12.568Z,4.05
2023-05-12T15:44:42.181Z,6.30
2023-05-12T15:47:10.782Z,3.58
2023-05-12T15:49:39.670Z,3.50
2023-05-12T15:52:09.932Z,2.83
2023-05-12T15:54:39.008Z,3.00
2023-05-12T15:57:08.443Z,2.40
2023-05-12T15:59:38.198Z,3.00
2023-05-12T16:02:07.742Z,2.70
2023-05-12T16:04:37.083Z,2.58
2023-05-12T16:07:05.964Z,2.90
2023-05-12T16:09:34.543Z,2.60
2023-05-12T16:12:03.199Z,2.80
2023-05-12T16:14:33.763Z,3.20
2023-05-12T16:17:02.833Z,3.55
2023-05-12T16:19:31.446Z,3.27
2023-05-12T16:22:00.389Z,3.33
2023-05-12T16:24:29.219Z,3.42
2023-05-12T16:26:59.330Z,3.37
2023-05-12T16:29:30.822Z,3.35
2023-05-12T16:31:59.471Z,3.40
2023-05-12T16:34:28.013Z,3.45
2023-05-12T16:36:56.610Z,3.47
2023-05-12T16:39:25.216Z,3.17
2023-05-12T16:41:54.090Z,3.58
2023-05-12T16:44:22.705Z,3.30
2023-05-12T16:46:51.517Z,3.27
2023-05-12T16:49:20.164Z,3.10
2023-05-12T16:51:48.933Z,3.00
2023-05-12T16:54:18.612Z,3.52
2023-05-12T16:56:47.490Z,3.52
2023-05-12T16:59:16.274Z,3.90
2023-05-12T17:01:44.904Z,3.75
2023-05-12T17:04:15.103Z,3.05
2023-05-12T17:06:44.003Z,3.40
2023-05-12T17:09:12.788Z,3.30
2023-05-12T17:11:41.397Z,3.62
2023-05-12T17:14:10.002Z,3.55
2023-05-12T17:16:38.733Z,4.45
2023-05-12T17:21:39.250Z,3.83
2023-05-12T17:24:08.614Z,4.15
2023-05-12T17:26:37.770Z,3.47
2023-05-12T17:29:06.437Z,4.00
2023-05-12T17:31:35.273Z,3.55
2023-05-12T17:34:03.893Z,4.45
2023-05-12T17:36:33.138Z,3.85
2023-05-12T17:39:02.310Z,4.45
2023-05-12T17:41:30.902Z,3.92
2023-05-12T17:43:59.527Z,4.40
2023-05-12T17:46:28.185Z,4.87
2023-05-12T17:48:56.775Z,5.50
2023-05-12T17:51:25.370Z,4.72
2023-05-12T17:53:54.033Z,4.28
2023-05-12T17:56:22.870Z,4.70
2023-05-12T17:58:51.527Z,4.72
2023-05-12T18:01:20.160Z,4.60
2023-05-12T18:03:48.939Z,4.37
2023-05-12T18:06:17.505Z,4.97
2023-05-12T18:08:46.585Z,4.67
2023-05-12T18:11:15.198Z,4.92
2023-05-12T18:13:43.805Z,4.80
2023-05-12T18:16:25.056Z,4.92
2023-05-12T18:18:42.655Z,4.70
2023-05-12T18:21:11.379Z,4.45
2023-05-12T18:23:41.212Z,4.10
2023-05-12T18:26:09.800Z,3.85
2023-05-12T18:28:38.450Z,3.60
2023-05-12T18:31:16.026Z,4.00
2023-05-12T18:33:37.595Z,4.45
2023-05-12T18:36:07.503Z,4.22
2023-05-12T18:38:36.076Z,4.15
2023-05-12T18:41:04.735Z,4.35
2023-05-12T18:43:34.884Z,4.05
2023-05-12T18:46:03.918Z,4.60
2023-05-12T18:48:32.963Z,3.90
2023-05-12T18:51:01.634Z,4.15
2023-05-12T18:53:30.276Z,4.12
2023-05-12T18:55:58.852Z,3.70
2023-05-12T18:58:27.443Z,4.47
2023-05-12T19:00:56.085Z,4.17
2023-05-12T19:03:24.704Z,4.00
2023-05-12T19:05:53.731Z,4.25
2023-05-12T19:08:22.447Z,4.55
2023-05-12T19:10:51.024Z,4.40
2023-05-12T19:13:19.603Z,4.10
2023-05-12T19:15:48.238Z,4.62
2023-05-12T19:18:17.435Z,4.53
2023-05-12T19:20:46.104Z,4.70
2023-05-12T19:23:15.041Z,4.30
2023-05-12T19:25:43.787Z,4.40
2023-05-12T19:28:12.474Z,4.70
2023-05-12T19:30:41.050Z,4.40
2023-05-12T19:33:09.818Z,4.40
2023-05-12T19:35:38.419Z,4.10
2023-05-12T19:38:07.027Z,4.28
2023-05-12T19:40:35.712Z,5.37
2023-05-12T19:43:05.088Z,5.10
2023-05-12T19:45:33.809Z,4.33
2023-05-12T19:48:02.630Z,5.00
2023-05-12T19:50:31.450Z,5.28
2023-05-12T19:53:00.125Z,5.10
2023-05-12T19:55:30.092Z,4.80
2023-05-12T19:57:59.256Z,4.85
2023-05-12T20:00:27.824Z,5.12
2023-05-12T20:02:56.461Z,5.37
2023-05-12T20:05:25.222Z,5.75
2023-05-12T20:07:53.818Z,5.60
2023-05-12T20:10:22.423Z,5.00
2023-05-12T20:12:51.650Z,5.60
2023-05-12T20:15:20.495Z,5.55
2023-05-12T20:17:49.324Z,6.62
2023-05-12T20:20:17.992Z,6.58
2023-05-12T20:22:46.522Z,7.22
2023-05-12T20:25:16.921Z,7.00
2023-05-12T20:27:46.059Z,6.08
2023-05-12T20:30:14.782Z,6.50
2023-05-12T20:32:43.887Z,7.10
2023-05-12T20:35:12.597Z,6.35
2023-05-12T20:37:41.194Z,7.08
2023-05-12T20:40:10.681Z,7.80
2023-05-12T20:42:39.607Z,6.85
2023-05-12T20:45:08.840Z,6.87
2023-05-12T20:47:37.698Z,6.10
2023-05-12T20:50:07.652Z,6.60
2023-05-12T20:52:40.983Z,6.90
2023-05-12T20:55:10.531Z,7.00
2023-05-12T20:57:40.156Z,6.40
2023-05-12T21:00:13.617Z,7.60
2023-05-12T21:02:42.213Z,6.62
2023-05-12T21:05:10.856Z,7.42
2023-05-12T21:07:39.600Z,6.87
2023-05-12T21:10:08.661Z,6.65
2023-05-12T21:12:37.804Z,7.42
2023-05-12T21:15:07.286Z,7.08
2023-05-12T21:17:35.992Z,6.83
2023-05-12T21:20:04.802Z,6.85
2023-05-12T21:22:33.420Z,7.00
2023-05-12T21:25:02.066Z,6.60
2023-05-12T21:27:30.938Z,6.75
2023-05-12T21:29:59.945Z,6.85
2023-05-12T21:32:28.601Z,7.20
2023-05-12T21:34:57.401Z,7.53
2023-05-12T21:37:25.989Z,6.72
2023-05-12T21:39:54.574Z,7.10
2023-05-12T21:42:23.169Z,7.25
2023-05-12T21:44:52.993Z,6.40
2023-05-12T21:47:21.662Z,7.50
2023-05-12T21:49:55.074Z,7.25
2023-05-12T21:52:24.088Z,6.92
2023-05-12T21:54:52.725Z,6.95
2023-05-12T21:57:21.374Z,7.60
2023-05-12T21:59:49.953Z,7.28
2023-05-12T22:02:18.667Z,8.78
2023-05-12T22:04:47.797Z,7.62
2023-05-12T22:07:16.404Z,8.70
2023-05-12T22:09:45.003Z,7.97
2023-05-12T22:12:15.308Z,8.40
2023-05-12T22:14:44.735Z,8.23
2023-05-12T22:17:13.389Z,8.30
2023-05-12T22:19:42.178Z,15.93
2023-05-12T22:22:10.859Z,9.50
2023-05-12T22:24:39.449Z,9.08
2023-05-12T22:27:08.114Z,9.30
2023-05-12T22:29:36.699Z,8.65
2023-05-12T22:32:05.430Z,8.83
2023-05-12T22:34:34.060Z,8.43
2023-05-12T22:37:02.726Z,8.98
2023-05-12T22:39:31.378Z,9.85
2023-05-12T22:42:00.144Z,8.95
2023-05-12T22:44:28.677Z,8.55
2023-05-12T22:46:57.561Z,8.20
2023-05-12T22:49:26.264Z,9.00
2023-05-12T22:51:54.892Z,8.20
2023-05-12T22:54:23.510Z,8.33
2023-05-12T22:56:52.119Z,8.25
2023-05-12T22:59:20.727Z,8.70
2023-05-12T23:01:49.375Z,8.43
2023-05-12T23:04:18.077Z,8.53
2023-05-12T23:06:46.715Z,8.50
2023-05-12T23:09:15.800Z,7.85
2023-05-12T23:11:44.381Z,8.20
2023-05-12T23:14:12.964Z,8.95
2023-05-12T23:16:41.647Z,11.43
2023-05-12T23:19:10.333Z,9.33
2023-05-12T23:21:39.033Z,8.00
2023-05-12T23:24:11.013Z,7.30
2023-05-12T23:26:42.741Z,8.20
2023-05-12T23:29:13.713Z,8.00
2023-05-12T23:31:45.084Z,7.78
2023-05-12T23:34:14.153Z,8.55
2023-05-12T23:36:42.933Z,8.80
2023-05-12T23:39:11.561Z,7.72
2023-05-12T23:41:40.171Z,8.13
2023-05-12T23:44:08.884Z,8.10
2023-05-12T23:46:37.733Z,8.93
2023-05-12T23:49:06.468Z,8.70
2023-05-12T23:51:35.740Z,8.48
2023-05-12T23:54:04.404Z,8.98
2023-05-12T23:56:32.996Z,8.83
2023-05-12T23:59:02.102Z,9.25
